Time;durP1;ratioP1;P1;durP2;ratioP2;P2;SDS_P1;SDS_P2;PMS_P1;PMS_P2;Temp;Humidity;BMP_temperature;BMP_pressure;BME280_temperature;BME280_humidity;BME280_pressure;Samples;Min_cycle;Max_cycle;Signal;HPM_P1;HPM_P2
2022/04/06 00:01:45;;;;;;;0.28;0.28;;;;;;;;;;4977972;28;20053;-81
2022/04/06 00:04:11;;;;;;;0.10;0.10;;;;;;;;;;4984043;28;20039;-80
2022/04/06 00:06:37;;;;;;;0.30;0.30;;;;;;;;;;4982218;28;20030;-80
2022/04/06 00:09:04;;;;;;;0.20;0.20;;;;;;;;;;4983130;28;20045;-82
2022/04/06 00:11:30;;;;;;;0.17;0.17;;;;;;;;;;4982925;28;20026;-79
2022/04/06 00:13:57;;;;;;;0.15;0.15;;;;;;;;;;4981460;28;20039;-79
2022/04/06 00:16:23;;;;;;;0.00;0.00;;;;;;;;;;4983492;28;20126;-79
2022/04/06 00:18:49;;;;;;;0.00;0.00;;;;;;;;;;4982963;28;20038;-80
2022/04/06 00:21:15;;;;;;;0.05;0.05;;;;;;;;;;4982676;28;20088;-81
2022/04/06 00:23:41;;;;;;;0.40;0.40;;;;;;;;;;4980143;28;20061;-82
2022/04/06 00:26:08;;;;;;;0.10;0.10;;;;;;;;;;4981058;28;20035;-84
2022/04/06 00:28:34;;;;;;;0.10;0.10;;;;;;;;;;4983124;28;20050;-83
2022/04/06 00:31:00;;;;;;;0.55;0.45;;;;;;;;;;4979554;28;20053;-84
2022/04/06 00:33:26;;;;;;;0.10;0.10;;;;;;;;;;4982283;28;20026;-84
2022/04/06 00:35:52;;;;;;;0.00;0.00;;;;;;;;;;4982966;28;20069;-84
2022/04/06 00:38:18;;;;;;;0.07;0.07;;;;;;;;;;4980547;28;20037;-81
2022/04/06 00:40:44;;;;;;;0.43;0.43;;;;;;;;;;4981005;28;20741;-82
2022/04/06 00:43:14;;;;;;;0.00;0.00;;;;;;;;;;4983032;28;20092;-81
2022/04/06 00:45:40;;;;;;;0.08;0.08;;;;;;;;;;4983775;28;20052;-82
2022/04/06 00:48:07;;;;;;;0.20;0.20;;;;;;;;;;4979853;28;20064;-82
2022/04/06 00:50:34;;;;;;;0.00;0.00;;;;;;;;;;4981945;28;20548;-82
2022/04/06 00:53:00;;;;;;;0.10;0.10;;;;;;;;;;4983246;28;20034;-82
2022/04/06 00:55:29;;;;;;;0.03;0.03;;;;;;;;;;4981872;28;20149;-82
2022/04/06 00:57:55;;;;;;;0.40;0.40;;;;;;;;;;4983354;28;20027;-82
2022/04/06 01:00:21;;;;;;;0.00;0.00;;;;;;;;;;4980758;28;20540;-82
2022/04/06 01:02:48;;;;;;;0.20;0.20;;;;;;;;;;4981010;28;20147;-82
2022/04/06 01:05:14;;;;;;;0.40;0.40;;;;;;;;;;4982535;28;20445;-82
2022/04/06 01:07:41;;;;;;;0.20;0.20;;;;;;;;;;4982430;28;20851;-80
2022/04/06 01:10:08;;;;;;;0.10;0.10;;;;;;;;;;4982954;28;20478;-80
2022/04/06 01:12:38;;;;;;;0.00;0.00;;;;;;;;;;4981758;28;20030;-80
2022/04/06 01:15:05;;;;;;;0.40;0.40;;;;;;;;;;4982434;28;20282;-80
2022/04/06 01:17:34;;;;;;;0.20;0.20;;;;;;;;;;4981384;28;20045;-79
2022/04/06 01:20:01;;;;;;;0.10;0.10;;;;;;;;;;4981510;28;20109;-80
2022/04/06 01:22:27;;;;;;;1.08;0.73;;;;;;;;;;4985172;28;20031;-80
2022/04/06 01:24:54;;;;;;;0.20;0.20;;;;;;;;;;4987390;28;20046;-79
2022/04/06 01:27:20;;;;;;;0.00;0.00;;;;;;;;;;4985725;28;20489;-81
2022/04/06 01:29:47;;;;;;;0.03;0.03;;;;;;;;;;4986456;28;20038;-81
2022/04/06 01:32:13;;;;;;;;;;;;;;;;;;4987288;28;20034;-82
2022/04/06 01:34:42;;;;;;;1.45;0.50;;;;;;;;;;4986431;28;19924;-82
2022/04/06 01:37:09;;;;;;;2.38;0.55;;;;;;;;;;4985181;28;20490;-81
2022/04/06 01:39:36;;;;;;;0.25;0.25;;;;;;;;;;4986672;28;20176;-81
2022/04/06 01:42:02;;;;;;;0.00;0.00;;;;;;;;;;4986791;28;20029;-82
2022/04/06 01:44:28;;;;;;;2.83;0.32;;;;;;;;;;4986109;28;20081;-81
2022/04/06 01:46:54;;;;;;;0.00;0.00;;;;;;;;;;4985526;28;20426;-81
2022/04/06 01:52:17;;;;;;;0.20;0.20;;;;;;;;;;4983889;28;20112;-81
2022/04/06 01:54:47;;;;;;;0.10;0.10;;;;;;;;;;4985022;28;20035;-82
2022/04/06 01:57:13;;;;;;;0.10;0.10;;;;;;;;;;4984788;28;20030;-82
2022/04/06 01:59:40;;;;;;;2.22;1.10;;;;;;;;;;4984885;28;20553;-80
2022/04/06 02:02:06;;;;;;;0.10;0.10;;;;;;;;;;4984742;28;20561;-81
2022/04/06 02:04:32;;;;;;;0.20;0.20;;;;;;;;;;4985004;28;20045;-79
2022/04/06 02:06:58;;;;;;;0.10;0.10;;;;;;;;;;4982801;28;20157;-79
2022/04/06 02:09:24;;;;;;;1.17;1.08;;;;;;;;;;4985504;28;20057;-81
2022/04/06 02:11:51;;;;;;;0.40;0.20;;;;;;;;;;4983173;28;20034;-82
2022/04/06 02:14:17;;;;;;;0.00;0.00;;;;;;;;;;4984935;28;20099;-82
2022/04/06 02:16:43;;;;;;;0.00;0.00;;;;;;;;;;4984326;28;20705;-82
2022/04/06 02:19:10;;;;;;;0.00;0.00;;;;;;;;;;4986173;28;20034;-82
2022/04/06 02:21:36;;;;;;;0.20;0.20;;;;;;;;;;4984339;28;20097;-82
2022/04/06 02:24:02;;;;;;;0.22;0.22;;;;;;;;;;4985977;28;20772;-82
2022/04/06 02:26:28;;;;;;;0.10;0.10;;;;;;;;;;4984843;28;20026;-82
2022/04/06 02:28:55;;;;;;;0.00;0.00;;;;;;;;;;4984016;28;20042;-82
2022/04/06 02:31:21;;;;;;;0.20;0.20;;;;;;;;;;4984319;28;20089;-82
2022/04/06 02:33:47;;;;;;;0.03;0.03;;;;;;;;;;4986377;28;20073;-82
2022/04/06 02:36:13;;;;;;;0.10;0.10;;;;;;;;;;4983192;28;20034;-83
2022/04/06 02:38:40;;;;;;;0.52;0.52;;;;;;;;;;4985358;28;20038;-83
2022/04/06 02:41:06;;;;;;;0.00;0.00;;;;;;;;;;4983558;28;20379;-83
2022/04/06 02:43:33;;;;;;;0.10;0.10;;;;;;;;;;4983874;28;20073;-83
2022/04/06 02:45:59;;;;;;;0.32;0.32;;;;;;;;;;4986717;28;20030;-81
2022/04/06 02:48:25;;;;;;;0.63;0.63;;;;;;;;;;4984250;28;20044;-81
2022/04/06 02:50:51;;;;;;;0.10;0.10;;;;;;;;;;4985035;28;20537;-81
2022/04/06 02:53:17;;;;;;;0.00;0.00;;;;;;;;;;4985205;28;20027;-81
2022/04/06 02:55:43;;;;;;;0.35;0.35;;;;;;;;;;4985139;28;20042;-81
2022/04/06 02:58:09;;;;;;;0.00;0.00;;;;;;;;;;4982217;28;20034;-82
2022/04/06 03:00:35;;;;;;;0.00;0.00;;;;;;;;;;4982683;28;20027;-81
2022/04/06 03:03:02;;;;;;;0.05;0.05;;;;;;;;;;4984821;28;20038;-80
2022/04/06 03:05:28;;;;;;;0.10;0.10;;;;;;;;;;4983431;28;20118;-82
2022/04/06 03:07:54;;;;;;;6.13;1.02;;;;;;;;;;4983149;28;20122;-79
2022/04/06 03:10:20;;;;;;;0.00;0.00;;;;;;;;;;4985164;28;20042;-80
2022/04/06 03:12:47;;;;;;;0.00;0.00;;;;;;;;;;4986982;28;20022;-80
2022/04/06 03:15:14;;;;;;;0.30;0.30;;;;;;;;;;4982400;28;20501;-79
2022/04/06 03:17:41;;;;;;;0.70;0.70;;;;;;;;;;4981809;28;20502;-80
2022/04/06 03:20:08;;;;;;;0.25;0.25;;;;;;;;;;4980772;28;20557;-80
2022/04/06 03:22:34;;;;;;;;;;;;;;;;;;4981228;28;20042;-80
2022/04/06 03:25:00;;;;;;;2.35;0.40;;;;;;;;;;4983056;28;20878;-80
2022/04/06 03:27:26;;;;;;;0.20;0.20;;;;;;;;;;4984146;28;20030;-80
2022/04/06 03:29:52;;;;;;;0.40;0.40;;;;;;;;;;4981993;28;20121;-79
2022/04/06 03:32:18;;;;;;;0.13;0.13;;;;;;;;;;4982777;28;20402;-80
2022/04/06 03:34:44;;;;;;;0.00;0.00;;;;;;;;;;4983616;28;20725;-80
2022/04/06 03:37:10;;;;;;;0.30;0.30;;;;;;;;;;5006467;28;20801;-80
2022/04/06 03:39:36;;;;;;;0.25;0.25;;;;;;;;;;4983096;28;20030;-80
2022/04/06 03:42:03;;;;;;;0.85;0.85;;;;;;;;;;4981536;28;20300;-79
2022/04/06 03:44:29;;;;;;;0.13;0.13;;;;;;;;;;4980122;28;20049;-78
2022/04/06 03:46:56;;;;;;;0.35;0.35;;;;;;;;;;4982439;28;20062;-79
2022/04/06 03:49:22;;;;;;;;;;;;;;;;;;4981452;28;21659;-79
2022/04/06 03:51:48;;;;;;;0.13;0.13;;;;;;;;;;4983447;28;19918;-79
2022/04/06 03:54:14;;;;;;;0.00;0.00;;;;;;;;;;4981161;28;20034;-79
2022/04/06 03:56:40;;;;;;;0.00;0.00;;;;;;;;;;4981726;28;20577;-79
2022/04/06 03:59:06;;;;;;;0.17;0.17;;;;;;;;;;4982821;28;20078;-79
2022/04/06 04:01:35;;;;;;;0.10;0.10;;;;;;;;;;4981641;28;20070;-79
2022/04/06 04:04:01;;;;;;;0.00;0.00;;;;;;;;;;4982468;28;20040;-79
2022/04/06 04:06:27;;;;;;;0.00;0.00;;;;;;;;;;4983749;28;20030;-79
2022/04/06 04:08:53;;;;;;;0.07;0.07;;;;;;;;;;4984439;28;20424;-78
2022/04/06 04:11:19;;;;;;;0.03;0.03;;;;;;;;;;4984097;28;20034;-78
2022/04/06 04:13:46;;;;;;;0.00;0.00;;;;;;;;;;4980428;28;20034;-79
2022/04/06 04:16:12;;;;;;;0.17;0.17;;;;;;;;;;4984115;28;20041;-79
2022/04/06 04:18:38;;;;;;;0.28;0.28;;;;;;;;;;4985086;28;20030;-80
2022/04/06 04:23:48;;;;;;;0.20;0.20;;;;;;;;;;4981168;28;20085;-79
2022/04/06 04:26:15;;;;;;;0.10;0.10;;;;;;;;;;4980306;28;20037;-80
2022/04/06 04:28:41;;;;;;;0.03;0.03;;;;;;;;;;4982494;28;20565;-79
2022/04/06 04:31:07;;;;;;;0.00;0.00;;;;;;;;;;4984419;28;20854;-79
2022/04/06 04:33:33;;;;;;;0.10;0.10;;;;;;;;;;4983037;28;20026;-80
2022/04/06 04:35:59;;;;;;;0.10;0.10;;;;;;;;;;4981952;28;20038;-77
2022/04/06 04:38:25;;;;;;;0.15;0.15;;;;;;;;;;5006878;28;20026;-79
2022/04/06 04:40:51;;;;;;;0.10;0.10;;;;;;;;;;4974156;28;20047;-82
2022/04/06 04:43:17;;;;;;;0.00;0.00;;;;;;;;;;4983627;28;20049;-84
2022/04/06 04:45:43;;;;;;;0.20;0.20;;;;;;;;;;4982487;28;20269;-82
2022/04/06 04:48:09;;;;;;;0.10;0.10;;;;;;;;;;4982604;28;20030;-82
2022/04/06 04:50:35;;;;;;;0.00;0.00;;;;;;;;;;4983162;28;20546;-82
2022/04/06 04:53:01;;;;;;;0.20;0.20;;;;;;;;;;4982084;28;20018;-83
2022/04/06 04:55:27;;;;;;;0.00;0.00;;;;;;;;;;4982069;28;20632;-82
2022/04/06 04:57:53;;;;;;;0.00;0.00;;;;;;;;;;4983720;28;20494;-81
2022/04/06 05:00:19;;;;;;;0.00;0.00;;;;;;;;;;4981121;28;20034;-80
2022/04/06 05:02:45;;;;;;;0.10;0.10;;;;;;;;;;4976056;28;20033;-81
2022/04/06 05:05:11;;;;;;;0.30;0.30;;;;;;;;;;4982994;28;20033;-82
2022/04/06 05:07:38;;;;;;;0.27;0.27;;;;;;;;;;4983184;28;20030;-83
2022/04/06 05:10:07;;;;;;;0.00;0.00;;;;;;;;;;4984016;28;20042;-84
2022/04/06 05:12:33;;;;;;;0.20;0.20;;;;;;;;;;4981892;28;20303;-80
2022/04/06 05:14:59;;;;;;;0.10;0.10;;;;;;;;;;4981539;28;20038;-81
2022/04/06 05:17:26;;;;;;;1.37;0.80;;;;;;;;;;4981526;28;20034;-80
2022/04/06 05:19:52;;;;;;;0.35;0.35;;;;;;;;;;4983515;28;20049;-78
2022/04/06 05:22:18;;;;;;;2.97;0.90;;;;;;;;;;4983476;28;20027;-78
2022/04/06 05:24:44;;;;;;;0.17;0.17;;;;;;;;;;4982687;28;20124;-79
2022/04/06 05:27:10;;;;;;;0.00;0.00;;;;;;;;;;4980994;28;20101;-79
2022/04/06 05:29:36;;;;;;;11.45;1.67;;;;;;;;;;4981652;28;20029;-82
2022/04/06 05:32:03;;;;;;;0.17;0.17;;;;;;;;;;4981030;28;20030;-87
2022/04/06 05:34:29;;;;;;;0.50;0.50;;;;;;;;;;4979722;28;20089;-83
2022/04/06 05:36:55;;;;;;;0.00;0.00;;;;;;;;;;4981592;28;20034;-83
2022/04/06 05:39:21;;;;;;;0.00;0.00;;;;;;;;;;4982105;28;20042;-81
2022/04/06 05:41:48;;;;;;;0.10;0.10;;;;;;;;;;4981449;28;20776;-82
2022/04/06 05:44:14;;;;;;;0.00;0.00;;;;;;;;;;4981232;28;20069;-86
2022/04/06 05:46:40;;;;;;;0.55;0.55;;;;;;;;;;4981217;28;20042;-86
2022/04/06 05:49:06;;;;;;;0.08;0.08;;;;;;;;;;4984017;28;20401;-86
2022/04/06 05:51:34;;;;;;;0.10;0.10;;;;;;;;;;4982022;28;20041;-83
2022/04/06 05:54:00;;;;;;;0.00;0.00;;;;;;;;;;4981476;28;20034;-86
2022/04/06 05:56:26;;;;;;;0.10;0.10;;;;;;;;;;4982240;28;20033;-82
2022/04/06 05:58:52;;;;;;;0.08;0.08;;;;;;;;;;4981143;28;20093;-82
2022/04/06 06:01:18;;;;;;;0.10;0.10;;;;;;;;;;4983449;28;20030;-84
2022/04/06 06:03:44;;;;;;;0.00;0.00;;;;;;;;;;4982821;28;20037;-84
2022/04/06 06:06:10;;;;;;;0.20;0.05;;;;;;;;;;5015572;28;20501;-84
2022/04/06 06:08:37;;;;;;;0.10;0.10;;;;;;;;;;4984949;28;20197;-84
2022/04/06 06:11:03;;;;;;;0.03;0.03;;;;;;;;;;4985151;28;20285;-83
2022/04/06 06:13:30;;;;;;;0.10;0.10;;;;;;;;;;4986692;28;20537;-84
2022/04/06 06:15:56;;;;;;;0.08;0.08;;;;;;;;;;4987940;28;20121;-83
2022/04/06 06:18:24;;;;;;;0.40;0.40;;;;;;;;;;4984440;28;20042;-84
2022/04/06 06:20:50;;;;;;;0.00;0.00;;;;;;;;;;4984660;28;20092;-84
2022/04/06 06:23:16;;;;;;;0.27;0.27;;;;;;;;;;4984358;28;20034;-84
2022/04/06 06:25:42;;;;;;;1.55;0.65;;;;;;;;;;4984617;28;20649;-85
2022/04/06 06:28:08;;;;;;;0.10;0.10;;;;;;;;;;4987470;28;20026;-83
2022/04/06 06:30:35;;;;;;;1.63;0.75;;;;;;;;;;4989745;28;20038;-84
2022/04/06 06:33:01;;;;;;;0.20;0.20;;;;;;;;;;4990747;28;20030;-84
2022/04/06 06:35:27;;;;;;;0.60;0.60;;;;;;;;;;4986338;28;20536;-84
2022/04/06 06:37:55;;;;;;;0.10;0.10;;;;;;;;;;4985771;28;20498;-84
2022/04/06 06:40:22;;;;;;;0.68;0.68;;;;;;;;;;4985756;28;20058;-84
2022/04/06 06:42:48;;;;;;;0.08;0.08;;;;;;;;;;4984937;28;20121;-83
2022/04/06 06:45:15;;;;;;;0.37;0.37;;;;;;;;;;4984214;28;20091;-84
2022/04/06 06:47:41;;;;;;;0.28;0.28;;;;;;;;;;4985583;28;20034;-84
2022/04/06 06:50:07;;;;;;;0.63;0.53;;;;;;;;;;4983986;28;20072;-83
2022/04/06 06:52:36;;;;;;;0.10;0.10;;;;;;;;;;4977867;28;20121;-84
2022/04/06 06:55:03;;;;;;;0.20;0.20;;;;;;;;;;4972081;28;20038;-84
2022/04/06 06:57:29;;;;;;;0.00;0.00;;;;;;;;;;4972100;28;20038;-84
2022/04/06 06:59:56;;;;;;;1.03;0.93;;;;;;;;;;4980565;28;20033;-84
2022/04/06 07:02:22;;;;;;;0.03;0.03;;;;;;;;;;4973695;28;20285;-84
2022/04/06 07:04:48;;;;;;;0.10;0.10;;;;;;;;;;4984364;28;20085;-85
2022/04/06 07:07:14;;;;;;;0.30;0.30;;;;;;;;;;4981349;28;20034;-84
2022/04/06 07:09:40;;;;;;;0.13;0.13;;;;;;;;;;4979347;28;20125;-84
2022/04/06 07:12:06;;;;;;;1.00;0.68;;;;;;;;;;4972531;28;20026;-84
2022/04/06 07:14:33;;;;;;;0.00;0.00;;;;;;;;;;4970645;28;20033;-84
2022/04/06 07:16:59;;;;;;;0.00;0.00;;;;;;;;;;4978453;28;20082;-81
2022/04/06 07:19:25;;;;;;;0.05;0.05;;;;;;;;;;4974283;28;20061;-83
2022/04/06 07:21:52;;;;;;;0.25;0.25;;;;;;;;;;4971034;28;20061;-82
2022/04/06 07:24:18;;;;;;;0.00;0.00;;;;;;;;;;4981023;28;20125;-83
2022/04/06 07:26:44;;;;;;;0.10;0.10;;;;;;;;;;4973259;28;20504;-83
2022/04/06 07:29:15;;;;;;;0.28;0.28;;;;;;;;;;4972179;28;20729;-83
2022/04/06 07:31:44;;;;;;;0.10;0.10;;;;;;;;;;4970447;28;20052;-84
2022/04/06 07:34:10;;;;;;;1.63;0.60;;;;;;;;;;4971070;28;20085;-84
2022/04/06 07:36:37;;;;;;;0.10;0.10;;;;;;;;;;4974858;28;20030;-83
2022/04/06 07:39:04;;;;;;;0.10;0.10;;;;;;;;;;4972994;28;20297;-83
2022/04/06 07:41:31;;;;;;;0.10;0.10;;;;;;;;;;4970115;28;20038;-83
2022/04/06 07:43:57;;;;;;;1.15;1.08;;;;;;;;;;4968520;28;20077;-83
2022/04/06 07:46:23;;;;;;;0.05;0.05;;;;;;;;;;4967604;28;20098;-83
2022/04/06 07:48:50;;;;;;;0.25;0.25;;;;;;;;;;4972146;28;20474;-83
2022/04/06 07:51:16;;;;;;;0.10;0.10;;;;;;;;;;4971078;28;20059;-83
2022/04/06 07:53:42;;;;;;;0.17;0.17;;;;;;;;;;4973087;28;20037;-84
2022/04/06 07:56:08;;;;;;;0.50;0.50;;;;;;;;;;4970456;28;20411;-84
2022/04/06 07:58:35;;;;;;;0.20;0.20;;;;;;;;;;4972778;28;20061;-85
2022/04/06 08:01:02;;;;;;;0.30;0.30;;;;;;;;;;4966641;28;20460;-84
2022/04/06 08:03:29;;;;;;;1.23;0.95;;;;;;;;;;4972811;28;20046;-84
2022/04/06 08:05:56;;;;;;;0.22;0.22;;;;;;;;;;4968109;28;20034;-88
2022/04/06 08:08:22;;;;;;;0.50;0.50;;;;;;;;;;4970024;28;20035;-84
2022/04/06 08:10:48;;;;;;;0.10;0.10;;;;;;;;;;4970089;28;20073;-84
2022/04/06 08:13:14;;;;;;;0.10;0.10;;;;;;;;;;4966573;28;20038;-85
2022/04/06 08:15:40;;;;;;;1.48;1.38;;;;;;;;;;4970795;28;20035;-84
2022/04/06 08:18:07;;;;;;;0.10;0.10;;;;;;;;;;4971032;28;20035;-83
2022/04/06 08:20:33;;;;;;;0.22;0.22;;;;;;;;;;4980935;28;20034;-84
2022/04/06 08:22:59;;;;;;;0.30;0.30;;;;;;;;;;4983687;28;20077;-83
2022/04/06 08:25:25;;;;;;;0.47;0.22;;;;;;;;;;4981710;28;20069;-83
2022/04/06 08:27:51;;;;;;;0.40;0.40;;;;;;;;;;4984959;28;20593;-83
2022/04/06 08:30:20;;;;;;;0.67;0.63;;;;;;;;;;4982763;28;20034;-83
2022/04/06 08:32:46;;;;;;;0.50;0.50;;;;;;;;;;4983941;28;20104;-83
2022/04/06 08:35:12;;;;;;;1.90;0.60;;;;;;;;;;4983870;28;20037;-83
2022/04/06 08:37:39;;;;;;;1.75;1.10;;;;;;;;;;4983395;28;20490;-83
2022/04/06 08:40:09;;;;;;;0.22;0.22;;;;;;;;;;4984856;28;20397;-83
2022/04/06 08:42:35;;;;;;;0.35;0.35;;;;;;;;;;4984610;28;20042;-83
2022/04/06 08:45:01;;;;;;;0.93;0.88;;;;;;;;;;4982574;28;20412;-83
2022/04/06 08:47:34;;;;;;;0.23;0.23;;;;;;;;;;4980933;28;20490;-83
2022/04/06 08:50:03;;;;;;;0.10;0.10;;;;;;;;;;4982478;28;20577;-83
2022/04/06 08:52:31;;;;;;;0.10;0.10;;;;;;;;;;4980520;28;20023;-83
2022/04/06 08:54:57;;;;;;;0.05;0.05;;;;;;;;;;4983120;28;20034;-83
2022/04/06 08:57:23;;;;;;;1.00;0.80;;;;;;;;;;4983322;28;20038;-83
2022/04/06 08:59:49;;;;;;;0.10;0.10;;;;;;;;;;4981338;28;20076;-83
2022/04/06 09:02:20;;;;;;;0.10;0.10;;;;;;;;;;4982710;28;20124;-83
2022/04/06 09:04:52;;;;;;;0.80;0.70;;;;;;;;;;4981489;28;20038;-85
2022/04/06 09:07:20;;;;;;;0.15;0.15;;;;;;;;;;4965237;28;20046;-82
2022/04/06 09:09:49;;;;;;;4.47;0.98;;;;;;;;;;4983315;28;20052;-82
2022/04/06 09:12:17;;;;;;;0.10;0.10;;;;;;;;;;4980798;28;20497;-82
2022/04/06 09:14:43;;;;;;;0.38;0.38;;;;;;;;;;4979775;28;20061;-81
2022/04/06 09:17:09;;;;;;;2.33;1.53;;;;;;;;;;4976544;28;20030;-81
2022/04/06 09:19:39;;;;;;;0.20;0.20;;;;;;;;;;4979013;28;20819;-82
2022/04/06 09:22:08;;;;;;;0.20;0.20;;;;;;;;;;4996330;28;20923;-82
2022/04/06 09:24:34;;;;;;;0.43;0.43;;;;;;;;;;4980951;28;20030;-80
2022/04/06 09:27:01;;;;;;;0.67;0.67;;;;;;;;;;4980623;28;20121;-83
2022/04/06 09:29:27;;;;;;;0.10;0.10;;;;;;;;;;4981842;28;20379;-83
2022/04/06 09:31:54;;;;;;;0.52;0.52;;;;;;;;;;4980973;28;20035;-82
2022/04/06 09:34:23;;;;;;;8.13;1.33;;;;;;;;;;4982968;28;20112;-82
2022/04/06 09:36:56;;;;;;;24.13;10.68;;;;;;;;;;4982216;28;20106;-82
2022/04/06 09:39:42;;;;;;;5.45;3.65;;;;;;;;;;4980360;28;20072;-82
2022/04/06 09:42:08;;;;;;;2.13;2.03;;;;;;;;;;4985131;28;20467;-81
2022/04/06 09:47:39;;;;;;;18.80;3.28;;;;;;;;;;4984614;28;20045;-82
2022/04/06 09:50:15;;;;;;;1.15;1.10;;;;;;;;;;5013164;28;20042;-83
2022/04/06 09:52:42;;;;;;;3.10;2.70;;;;;;;;;;4984172;28;20045;-82
2022/04/06 09:55:10;;;;;;;1.25;1.15;;;;;;;;;;4987038;28;20538;-82
2022/04/06 09:57:41;;;;;;;4.82;4.25;;;;;;;;;;4984975;28;20037;-82
2022/04/06 10:00:07;;;;;;;2.78;2.40;;;;;;;;;;4984274;28;20084;-82
2022/04/06 10:02:35;;;;;;;1.60;1.15;;;;;;;;;;5015225;28;20068;-82
2022/04/06 10:05:02;;;;;;;0.45;0.45;;;;;;;;;;4984273;28;20072;-82
2022/04/06 10:07:29;;;;;;;0.43;0.43;;;;;;;;;;4985359;28;20043;-83
2022/04/06 10:09:55;;;;;;;0.60;0.60;;;;;;;;;;4986798;28;20038;-83
2022/04/06 10:12:22;;;;;;;0.10;0.10;;;;;;;;;;4984235;28;20486;-82
2022/04/06 10:14:48;;;;;;;0.70;0.70;;;;;;;;;;4985371;28;20646;-83
2022/04/06 10:17:16;;;;;;;4.22;1.38;;;;;;;;;;4983763;28;20027;-83
2022/04/06 10:19:45;;;;;;;0.98;0.98;;;;;;;;;;4984197;28;20023;-82
2022/04/06 10:22:16;;;;;;;1.83;1.73;;;;;;;;;;4986450;28;20034;-83
2022/04/06 10:24:45;;;;;;;0.40;0.40;;;;;;;;;;4986956;28;20041;-82
2022/04/06 10:27:11;;;;;;;0.65;0.55;;;;;;;;;;4994177;28;20065;-82
2022/04/06 10:30:13;;;;;;;0.10;0.10;;;;;;;;;;4985842;28;20092;-82
2022/04/06 10:32:40;;;;;;;1.15;0.80;;;;;;;;;;4964895;28;20062;-83
2022/04/06 10:35:18;;;;;;;0.60;0.60;;;;;;;;;;4966344;28;20157;-82
2022/04/06 10:38:13;;;;;;;1.25;1.10;;;;;;;;;;4966704;28;20030;-82
2022/04/06 10:40:45;;;;;;;0.40;0.40;;;;;;;;;;4963840;28;20042;-82
2022/04/06 10:43:30;;;;;;;1.05;0.40;;;;;;;;;;4962827;28;20524;-82
2022/04/06 10:45:57;;;;;;;0.10;0.10;;;;;;;;;;4959555;28;20046;-83
2022/04/06 10:48:23;;;;;;;1.23;0.70;;;;;;;;;;4955049;28;20053;-82
2022/04/06 10:50:50;;;;;;;0.13;0.13;;;;;;;;;;4960297;28;20043;-82
2022/04/06 10:53:19;;;;;;;0.35;0.35;;;;;;;;;;4965821;28;20078;-82
2022/04/06 10:56:06;;;;;;;0.93;0.80;;;;;;;;;;4965147;28;20093;-83
2022/04/06 10:58:50;;;;;;;0.30;0.30;;;;;;;;;;4964338;28;20031;-82
2022/04/06 11:01:17;;;;;;;1.48;0.77;;;;;;;;;;4962202;28;20050;-82
2022/04/06 11:03:54;;;;;;;0.75;0.63;;;;;;;;;;4964359;28;20169;-82
2022/04/06 11:06:39;;;;;;;2.58;1.05;;;;;;;;;;4974933;28;20042;-82
2022/04/06 11:12:20;;;;;;;0.30;0.30;;;;;;;;;;4985591;28;20092;-81
2022/04/06 11:14:47;;;;;;;0.88;0.82;;;;;;;;;;4983128;28;20463;-82
2022/04/06 11:17:32;;;;;;;0.52;0.52;;;;;;;;;;4984204;28;20490;-83
2022/04/06 11:20:06;;;;;;;0.45;0.38;;;;;;;;;;4983123;28;20041;-82
2022/04/06 11:22:33;;;;;;;0.22;0.22;;;;;;;;;;4983499;28;20022;-82
2022/04/06 11:24:59;;;;;;;0.55;0.55;;;;;;;;;;4985819;28;20030;-82
2022/04/06 11:27:30;;;;;;;1.25;1.25;;;;;;;;;;4989421;28;20417;-82
2022/04/06 11:30:09;;;;;;;2.05;1.27;;;;;;;;;;4988589;28;20049;-82
2022/04/06 11:32:39;;;;;;;0.63;0.63;;;;;;;;;;4982322;28;20045;-82
2022/04/06 11:35:08;;;;;;;0.45;0.45;;;;;;;;;;4982573;28;20034;-82
2022/04/06 11:37:42;;;;;;;0.30;0.30;;;;;;;;;;4968628;28;20085;-82
2022/04/06 11:40:08;;;;;;;0.30;0.30;;;;;;;;;;4981973;28;20145;-82
2022/04/06 11:42:34;;;;;;;0.35;0.35;;;;;;;;;;4984976;28;20042;-82
2022/04/06 11:45:00;;;;;;;0.37;0.37;;;;;;;;;;4983468;28;20057;-82
2022/04/06 11:47:34;;;;;;;0.10;0.10;;;;;;;;;;4982398;28;20042;-83
2022/04/06 11:50:05;;;;;;;0.10;0.10;;;;;;;;;;4982404;28;20312;-82
2022/04/06 11:52:32;;;;;;;0.20;0.20;;;;;;;;;;4983615;28;20404;-82
2022/04/06 11:54:58;;;;;;;0.75;0.70;;;;;;;;;;4986198;28;20038;-82
2022/04/06 11:57:38;;;;;;;0.47;0.47;;;;;;;;;;4982337;28;20129;-82
2022/04/06 12:00:06;;;;;;;0.20;0.20;;;;;;;;;;4982329;28;20501;-83
2022/04/06 12:02:47;;;;;;;0.95;0.82;;;;;;;;;;4984061;28;20038;-82
2022/04/06 12:05:14;;;;;;;0.32;0.32;;;;;;;;;;4982187;28;20041;-82
2022/04/06 12:07:40;;;;;;;0.30;0.30;;;;;;;;;;4982592;28;20042;-84
2022/04/06 12:10:06;;;;;;;0.30;0.30;;;;;;;;;;4985512;28;20152;-84
2022/04/06 12:12:36;;;;;;;0.75;0.75;;;;;;;;;;4982016;28;20027;-85
2022/04/06 12:15:02;;;;;;;0.22;0.22;;;;;;;;;;4982709;28;20113;-84
2022/04/06 12:17:28;;;;;;;0.10;0.10;;;;;;;;;;4982247;28;20026;-84
2022/04/06 12:19:54;;;;;;;0.10;0.10;;;;;;;;;;4982250;28;20070;-85
2022/04/06 12:22:25;;;;;;;0.00;0.00;;;;;;;;;;4984912;28;20023;-85
2022/04/06 12:24:52;;;;;;;0.55;0.55;;;;;;;;;;4984399;28;20042;-84
2022/04/06 12:27:28;;;;;;;0.20;0.20;;;;;;;;;;4984160;28;20069;-84
2022/04/06 12:30:23;;;;;;;0.60;0.60;;;;;;;;;;4982358;28;20049;-85
2022/04/06 12:32:49;;;;;;;0.10;0.10;;;;;;;;;;4976597;28;20293;-85
2022/04/06 12:35:23;;;;;;;0.20;0.20;;;;;;;;;;4981578;28;20088;-84
2022/04/06 12:37:50;;;;;;;0.20;0.20;;;;;;;;;;4981240;28;20046;-84
2022/04/06 12:40:26;;;;;;;0.32;0.32;;;;;;;;;;4984095;28;20510;-85
2022/04/06 12:42:53;;;;;;;0.08;0.08;;;;;;;;;;4985256;28;20080;-85
2022/04/06 12:45:19;;;;;;;0.43;0.43;;;;;;;;;;4982408;28;20042;-84
2022/04/06 12:47:45;;;;;;;0.10;0.10;;;;;;;;;;4982219;28;20121;-84
2022/04/06 12:50:13;;;;;;;0.20;0.20;;;;;;;;;;4977909;28;20065;-85
2022/04/06 12:52:39;;;;;;;0.85;0.85;;;;;;;;;;4982217;28;20044;-85
2022/04/06 12:55:06;;;;;;;0.37;0.37;;;;;;;;;;4984813;28;20045;-85
2022/04/06 12:57:34;;;;;;;0.30;0.30;;;;;;;;;;4984172;28;20030;-85
2022/04/06 13:00:03;;;;;;;0.45;0.45;;;;;;;;;;4983297;28;20035;-84
2022/04/06 13:02:34;;;;;;;0.20;0.20;;;;;;;;;;4981647;28;20026;-85
2022/04/06 13:05:08;;;;;;;0.55;0.55;;;;;;;;;;4982043;28;20034;-85
2022/04/06 13:07:40;;;;;;;0.57;0.57;;;;;;;;;;4968345;28;20065;-85
2022/04/06 13:10:16;;;;;;;0.30;0.30;;;;;;;;;;4981463;28;20057;-85
2022/04/06 13:12:43;;;;;;;0.10;0.10;;;;;;;;;;4984896;28;20514;-85
2022/04/06 13:15:10;;;;;;;0.13;0.13;;;;;;;;;;4978387;28;20034;-85
2022/04/06 13:17:37;;;;;;;0.13;0.13;;;;;;;;;;4987395;28;20108;-85
2022/04/06 13:20:13;;;;;;;0.10;0.10;;;;;;;;;;4987969;28;20037;-84
2022/04/06 13:22:40;;;;;;;0.10;0.10;;;;;;;;;;4987587;28;20521;-85
2022/04/06 13:25:06;;;;;;;0.40;0.38;;;;;;;;;;4990728;28;20038;-85
2022/04/06 13:27:33;;;;;;;0.20;0.20;;;;;;;;;;4987768;28;20042;-85
2022/04/06 13:29:59;;;;;;;1.38;0.55;;;;;;;;;;4989296;28;20044;-84
2022/04/06 13:32:26;;;;;;;0.13;0.13;;;;;;;;;;4987882;28;20049;-84
2022/04/06 13:34:52;;;;;;;0.10;0.10;;;;;;;;;;4990302;28;20073;-84
2022/04/06 13:37:19;;;;;;;0.20;0.20;;;;;;;;;;4989660;28;20589;-84
2022/04/06 13:39:45;;;;;;;1.10;0.82;;;;;;;;;;4990654;28;20361;-84
2022/04/06 13:42:11;;;;;;;0.13;0.13;;;;;;;;;;4987710;28;20101;-85
2022/04/06 13:44:38;;;;;;;2.35;0.68;;;;;;;;;;5005159;28;20049;-85
2022/04/06 13:47:05;;;;;;;0.13;0.13;;;;;;;;;;4988228;28;20116;-85
2022/04/06 13:49:31;;;;;;;0.10;0.10;;;;;;;;;;4988372;28;20058;-85
2022/04/06 13:52:00;;;;;;;4.30;0.83;;;;;;;;;;4990432;28;20038;-86
2022/04/06 13:54:26;;;;;;;0.00;0.00;;;;;;;;;;5018877;28;20312;-84
2022/04/06 13:56:53;;;;;;;0.10;0.10;;;;;;;;;;4987556;28;20034;-85
2022/04/06 13:59:19;;;;;;;0.05;0.05;;;;;;;;;;4987395;28;20038;-84
2022/04/06 14:01:46;;;;;;;0.20;0.20;;;;;;;;;;4987328;28;20031;-84
2022/04/06 14:04:12;;;;;;;;;;;;;;;;;;4990492;28;20038;-84
2022/04/06 14:06:38;;;;;;;0.10;0.10;;;;;;;;;;4988138;28;20000;-84
2022/04/06 14:09:05;;;;;;;0.10;0.10;;;;;;;;;;4987472;28;20036;-85
2022/04/06 14:11:31;;;;;;;0.30;0.30;;;;;;;;;;4987524;28;20045;-85
2022/04/06 14:13:59;;;;;;;0.10;0.10;;;;;;;;;;4987594;28;20145;-85
2022/04/06 14:16:25;;;;;;;0.10;0.10;;;;;;;;;;4989807;28;20110;-84
2022/04/06 14:18:55;;;;;;;0.10;0.10;;;;;;;;;;4990598;28;20065;-84
2022/04/06 14:21:21;;;;;;;0.10;0.10;;;;;;;;;;4987736;28;20525;-84
2022/04/06 14:23:47;;;;;;;0.10;0.10;;;;;;;;;;4988927;28;20053;-85
2022/04/06 14:26:13;;;;;;;0.10;0.10;;;;;;;;;;4987435;28;20030;-85
2022/04/06 14:28:40;;;;;;;0.10;0.10;;;;;;;;;;4983471;28;20034;-84
2022/04/06 14:31:07;;;;;;;0.10;0.10;;;;;;;;;;4987666;28;20309;-84
2022/04/06 14:33:34;;;;;;;0.10;0.10;;;;;;;;;;4985772;28;20733;-84
2022/04/06 14:36:00;;;;;;;0.10;0.10;;;;;;;;;;5015287;28;20026;-84
2022/04/06 14:38:27;;;;;;;0.10;0.10;;;;;;;;;;4983896;28;20038;-84
2022/04/06 14:40:53;;;;;;;0.20;0.20;;;;;;;;;;4981835;28;20030;-84
2022/04/06 14:43:20;;;;;;;0.10;0.10;;;;;;;;;;4983350;28;20054;-84
2022/04/06 14:45:46;;;;;;;0.10;0.10;;;;;;;;;;4984488;28;20034;-84
2022/04/06 14:48:13;;;;;;;0.10;0.10;;;;;;;;;;4983380;28;20145;-84
2022/04/06 14:50:39;;;;;;;0.08;0.08;;;;;;;;;;4983216;28;20042;-84
2022/04/06 14:53:06;;;;;;;0.20;0.20;;;;;;;;;;4982944;28;20493;-84
2022/04/06 14:55:32;;;;;;;0.47;0.38;;;;;;;;;;4984069;28;20070;-84
2022/04/06 14:57:58;;;;;;;0.20;0.20;;;;;;;;;;4985900;28;20651;-84